sensor_id;sensor_type;location;lat;lon;timestamp;P1;durP1;ratioP1;P2;durP2;ratioP2
19396;SDS011;9834;48.076;11.878;2023-04-05T00:02:02;5.07;;;3.30;;
19396;SDS011;9834;48.076;11.878;2023-04-05T00:04:29;4.97;;;3.03;;
19396;SDS011;9834;48.076;11.878;2023-04-05T00:06:59;3.57;;;2.83;;
19396;SDS011;9834;48.076;11.878;2023-04-05T00:09:33;6.00;;;2.87;;
19396;SDS011;9834;48.076;11.878;2023-04-05T00:12:00;4.40;;;3.17;;
19396;SDS011;9834;48.076;11.878;2023-04-05T00:14:28;4.83;;;3.20;;
19396;SDS011;9834;48.076;11.878;2023-04-05T00:16:55;5.23;;;3.30;;
19396;SDS011;9834;48.076;11.878;2023-04-05T00:19:23;3.20;;;2.67;;
19396;SDS011;9834;48.076;11.878;2023-04-05T00:21:50;5.03;;;2.67;;
19396;SDS011;9834;48.076;11.878;2023-04-05T00:24:19;4.60;;;2.63;;
19396;SDS011;9834;48.076;11.878;2023-04-05T00:26:48;4.80;;;3.10;;
19396;SDS011;9834;48.076;11.878;2023-04-05T00:29:16;4.70;;;3.40;;
19396;SDS011;9834;48.076;11.878;2023-04-05T00:31:43;3.90;;;2.80;;
19396;SDS011;9834;48.076;11.878;2023-04-05T00:34:10;7.43;;;3.13;;
19396;SDS011;9834;48.076;11.878;2023-04-05T00:36:37;4.10;;;2.97;;
19396;SDS011;9834;48.076;11.878;2023-04-05T00:39:05;3.97;;;2.30;;
19396;SDS011;9834;48.076;11.878;2023-04-05T00:41:32;3.07;;;2.77;;
19396;SDS011;9834;48.076;11.878;2023-04-05T00:44:02;3.40;;;2.57;;
19396;SDS011;9834;48.076;11.878;2023-04-05T00:46:32;4.83;;;2.87;;
19396;SDS011;9834;48.076;11.878;2023-04-05T00:49:00;5.95;;;2.80;;
19396;SDS011;9834;48.076;11.878;2023-04-05T00:51:29;3.80;;;2.80;;
19396;SDS011;9834;48.076;11.878;2023-04-05T00:53:58;3.80;;;2.83;;
19396;SDS011;9834;48.076;11.878;2023-04-05T00:56:27;4.10;;;2.83;;
19396;SDS011;9834;48.076;11.878;2023-04-05T00:58:55;4.80;;;2.70;;
19396;SDS011;9834;48.076;11.878;2023-04-05T01:01:25;3.63;;;2.73;;
19396;SDS011;9834;48.076;11.878;2023-04-05T01:03:54;6.53;;;3.30;;
19396;SDS011;9834;48.076;11.878;2023-04-05T01:06:46;3.23;;;2.70;;
19396;SDS011;9834;48.076;11.878;2023-04-05T01:09:29;4.33;;;3.03;;
19396;SDS011;9834;48.076;11.878;2023-04-05T01:12:05;3.80;;;3.20;;
19396;SDS011;9834;48.076;11.878;2023-04-05T01:14:42;4.60;;;2.60;;
19396;SDS011;9834;48.076;11.878;2023-04-05T01:17:15;3.30;;;3.00;;
19396;SDS011;9834;48.076;11.878;2023-04-05T01:19:46;6.03;;;3.30;;
19396;SDS011;9834;48.076;11.878;2023-04-05T01:25:31;5.30;;;3.17;;
19396;SDS011;9834;48.076;11.878;2023-04-05T01:28:21;3.30;;;2.37;;
19396;SDS011;9834;48.076;11.878;2023-04-05T01:31:01;3.53;;;3.10;;
19396;SDS011;9834;48.076;11.878;2023-04-05T01:33:34;4.33;;;2.27;;
19396;SDS011;9834;48.076;11.878;2023-04-05T01:36:10;2.50;;;2.30;;
19396;SDS011;9834;48.076;11.878;2023-04-05T01:38:48;3.13;;;2.17;;
19396;SDS011;9834;48.076;11.878;2023-04-05T01:41:16;3.10;;;2.60;;
19396;SDS011;9834;48.076;11.878;2023-04-05T01:43:44;3.20;;;2.70;;
19396;SDS011;9834;48.076;11.878;2023-04-05T01:46:13;4.63;;;2.80;;
19396;SDS011;9834;48.076;11.878;2023-04-05T01:48:40;4.50;;;2.07;;
19396;SDS011;9834;48.076;11.878;2023-04-05T01:51:08;4.70;;;2.93;;
19396;SDS011;9834;48.076;11.878;2023-04-05T01:53:36;3.87;;;2.70;;
19396;SDS011;9834;48.076;11.878;2023-04-05T01:56:04;4.03;;;2.83;;
19396;SDS011;9834;48.076;11.878;2023-04-05T01:58:32;4.53;;;2.87;;
19396;SDS011;9834;48.076;11.878;2023-04-05T02:00:59;3.03;;;2.47;;
19396;SDS011;9834;48.076;11.878;2023-04-05T02:03:28;3.23;;;2.93;;
19396;SDS011;9834;48.076;11.878;2023-04-05T02:05:56;3.50;;;2.43;;
19396;SDS011;9834;48.076;11.878;2023-04-05T02:08:23;3.13;;;2.80;;
19396;SDS011;9834;48.076;11.878;2023-04-05T02:10:51;5.17;;;3.07;;
19396;SDS011;9834;48.076;11.878;2023-04-05T02:13:19;4.63;;;3.10;;
19396;SDS011;9834;48.076;11.878;2023-04-05T02:15:48;5.90;;;2.97;;
19396;SDS011;9834;48.076;11.878;2023-04-05T02:18:16;2.67;;;2.20;;
19396;SDS011;9834;48.076;11.878;2023-04-05T02:20:49;2.77;;;2.57;;
19396;SDS011;9834;48.076;11.878;2023-04-05T02:23:18;3.87;;;2.70;;
19396;SDS011;9834;48.076;11.878;2023-04-05T02:25:46;2.63;;;2.40;;
19396;SDS011;9834;48.076;11.878;2023-04-05T02:28:13;2.87;;;2.43;;
19396;SDS011;9834;48.076;11.878;2023-04-05T02:30:40;4.87;;;3.10;;
19396;SDS011;9834;48.076;11.878;2023-04-05T02:33:08;4.17;;;2.50;;
19396;SDS011;9834;48.076;11.878;2023-04-05T02:35:36;3.60;;;2.83;;
19396;SDS011;9834;48.076;11.878;2023-04-05T02:38:06;2.40;;;2.20;;
19396;SDS011;9834;48.076;11.878;2023-04-05T02:40:33;2.87;;;2.63;;
19396;SDS011;9834;48.076;11.878;2023-04-05T02:43:01;4.60;;;2.63;;
19396;SDS011;9834;48.076;11.878;2023-04-05T02:45:29;5.33;;;3.07;;
19396;SDS011;9834;48.076;11.878;2023-04-05T02:47:57;4.27;;;2.50;;
19396;SDS011;9834;48.076;11.878;2023-04-05T02:50:24;3.43;;;2.93;;
19396;SDS011;9834;48.076;11.878;2023-04-05T02:52:52;3.10;;;2.80;;
19396;SDS011;9834;48.076;11.878;2023-04-05T02:55:21;6.00;;;3.77;;
19396;SDS011;9834;48.076;11.878;2023-04-05T02:57:48;3.63;;;2.67;;
19396;SDS011;9834;48.076;11.878;2023-04-05T03:00:16;4.27;;;3.17;;
19396;SDS011;9834;48.076;11.878;2023-04-05T03:02:44;3.87;;;3.03;;
19396;SDS011;9834;48.076;11.878;2023-04-05T03:05:12;3.07;;;2.77;;
19396;SDS011;9834;48.076;11.878;2023-04-05T03:07:42;3.23;;;2.93;;
19396;SDS011;9834;48.076;11.878;2023-04-05T03:10:12;4.57;;;2.80;;
19396;SDS011;9834;48.076;11.878;2023-04-05T03:12:45;2.60;;;2.40;;
19396;SDS011;9834;48.076;11.878;2023-04-05T03:15:12;2.40;;;2.20;;
19396;SDS011;9834;48.076;11.878;2023-04-05T03:17:40;3.40;;;3.10;;
19396;SDS011;9834;48.076;11.878;2023-04-05T03:20:09;3.70;;;2.77;;
19396;SDS011;9834;48.076;11.878;2023-04-05T03:22:37;5.90;;;2.90;;
19396;SDS011;9834;48.076;11.878;2023-04-05T03:25:06;3.23;;;2.93;;
19396;SDS011;9834;48.076;11.878;2023-04-05T03:27:33;6.27;;;3.47;;
19396;SDS011;9834;48.076;11.878;2023-04-05T03:30:02;3.37;;;2.93;;
19396;SDS011;9834;48.076;11.878;2023-04-05T03:32:30;5.13;;;3.20;;
19396;SDS011;9834;48.076;11.878;2023-04-05T03:34:57;3.97;;;2.93;;
19396;SDS011;9834;48.076;11.878;2023-04-05T03:37:25;3.67;;;3.30;;
19396;SDS011;9834;48.076;11.878;2023-04-05T03:39:52;6.13;;;3.53;;
19396;SDS011;9834;48.076;11.878;2023-04-05T03:42:20;6.53;;;3.30;;
19396;SDS011;9834;48.076;11.878;2023-04-05T03:44:49;6.17;;;3.20;;
19396;SDS011;9834;48.076;11.878;2023-04-05T03:47:19;5.30;;;3.17;;
19396;SDS011;9834;48.076;11.878;2023-04-05T03:49:47;5.93;;;3.60;;
19396;SDS011;9834;48.076;11.878;2023-04-05T03:52:14;5.53;;;3.30;;
19396;SDS011;9834;48.076;11.878;2023-04-05T03:54:41;4.07;;;3.60;;
19396;SDS011;9834;48.076;11.878;2023-04-05T03:57:08;3.27;;;3.00;;
19396;SDS011;9834;48.076;11.878;2023-04-05T03:59:36;3.40;;;3.07;;
19396;SDS011;9834;48.076;11.878;2023-04-05T04:02:03;5.97;;;4.20;;
19396;SDS011;9834;48.076;11.878;2023-04-05T04:04:33;5.00;;;3.40;;
19396;SDS011;9834;48.076;11.878;2023-04-05T04:07:01;3.73;;;3.00;;
19396;SDS011;9834;48.076;11.878;2023-04-05T04:09:28;5.33;;;3.30;;
19396;SDS011;9834;48.076;11.878;2023-04-05T04:11:56;8.03;;;4.07;;
19396;SDS011;9834;48.076;11.878;2023-04-05T04:14:23;5.00;;;4.17;;
19396;SDS011;9834;48.076;11.878;2023-04-05T04:16:51;5.13;;;3.87;;
19396;SDS011;9834;48.076;11.878;2023-04-05T04:19:18;5.93;;;4.23;;
19396;SDS011;9834;48.076;11.878;2023-04-05T04:21:47;4.50;;;4.07;;
19396;SDS011;9834;48.076;11.878;2023-04-05T04:24:16;5.07;;;4.47;;
19396;SDS011;9834;48.076;11.878;2023-04-05T04:26:44;6.40;;;4.50;;
19396;SDS011;9834;48.076;11.878;2023-04-05T04:29:12;4.23;;;3.57;;
19396;SDS011;9834;48.076;11.878;2023-04-05T04:31:41;5.53;;;4.83;;
19396;SDS011;9834;48.076;11.878;2023-04-05T04:34:10;8.23;;;5.00;;
19396;SDS011;9834;48.076;11.878;2023-04-05T04:36:38;6.53;;;4.50;;
19396;SDS011;9834;48.076;11.878;2023-04-05T04:39:08;4.97;;;4.23;;
19396;SDS011;9834;48.076;11.878;2023-04-05T04:41:38;7.33;;;4.97;;
19396;SDS011;9834;48.076;11.878;2023-04-05T04:44:09;9.83;;;4.80;;
19396;SDS011;9834;48.076;11.878;2023-04-05T04:46:38;6.00;;;4.37;;
19396;SDS011;9834;48.076;11.878;2023-04-05T04:49:08;7.40;;;4.50;;
19396;SDS011;9834;48.076;11.878;2023-04-05T04:51:37;10.07;;;4.37;;
19396;SDS011;9834;48.076;11.878;2023-04-05T04:54:04;4.93;;;4.23;;
19396;SDS011;9834;48.076;11.878;2023-04-05T04:56:34;6.33;;;4.07;;
19396;SDS011;9834;48.076;11.878;2023-04-05T04:59:01;4.93;;;3.80;;
19396;SDS011;9834;48.076;11.878;2023-04-05T05:01:28;8.83;;;4.73;;
19396;SDS011;9834;48.076;11.878;2023-04-05T05:03:58;5.83;;;4.20;;
19396;SDS011;9834;48.076;11.878;2023-04-05T05:06:25;5.90;;;4.13;;
19396;SDS011;9834;48.076;11.878;2023-04-05T05:08:53;6.27;;;4.50;;
19396;SDS011;9834;48.076;11.878;2023-04-05T05:11:21;6.93;;;4.53;;
19396;SDS011;9834;48.076;11.878;2023-04-05T05:13:49;6.73;;;5.27;;
19396;SDS011;9834;48.076;11.878;2023-04-05T05:16:17;5.47;;;4.80;;
19396;SDS011;9834;48.076;11.878;2023-04-05T05:18:45;6.10;;;4.63;;
19396;SDS011;9834;48.076;11.878;2023-04-05T05:21:13;6.33;;;4.63;;
19396;SDS011;9834;48.076;11.878;2023-04-05T05:23:41;8.60;;;4.80;;
19396;SDS011;9834;48.076;11.878;2023-04-05T05:26:08;5.47;;;4.60;;
19396;SDS011;9834;48.076;11.878;2023-04-05T05:28:37;9.53;;;5.60;;
19396;SDS011;9834;48.076;11.878;2023-04-05T05:31:05;9.60;;;5.70;;
19396;SDS011;9834;48.076;11.878;2023-04-05T05:33:33;7.07;;;5.00;;
19396;SDS011;9834;48.076;11.878;2023-04-05T05:36:00;7.67;;;5.17;;
19396;SDS011;9834;48.076;11.878;2023-04-05T05:38:28;9.17;;;5.83;;
19396;SDS011;9834;48.076;11.878;2023-04-05T05:40:55;8.80;;;5.27;;
19396;SDS011;9834;48.076;11.878;2023-04-05T05:43:22;9.13;;;5.77;;
19396;SDS011;9834;48.076;11.878;2023-04-05T05:45:50;7.37;;;5.27;;
19396;SDS011;9834;48.076;11.878;2023-04-05T05:48:19;10.23;;;5.70;;
19396;SDS011;9834;48.076;11.878;2023-04-05T05:50:46;8.50;;;5.20;;
19396;SDS011;9834;48.076;11.878;2023-04-05T05:53:14;7.17;;;4.53;;
19396;SDS011;9834;48.076;11.878;2023-04-05T05:55:42;7.03;;;4.80;;
19396;SDS011;9834;48.076;11.878;2023-04-05T05:58:09;9.17;;;5.27;;
19396;SDS011;9834;48.076;11.878;2023-04-05T06:00:37;8.63;;;5.13;;
19396;SDS011;9834;48.076;11.878;2023-04-05T06:03:04;6.97;;;4.53;;
19396;SDS011;9834;48.076;11.878;2023-04-05T06:05:33;8.93;;;4.53;;
19396;SDS011;9834;48.076;11.878;2023-04-05T06:08:01;7.03;;;5.37;;
19396;SDS011;9834;48.076;11.878;2023-04-05T06:10:28;5.47;;;3.93;;
19396;SDS011;9834;48.076;11.878;2023-04-05T06:12:56;7.33;;;4.93;;
19396;SDS011;9834;48.076;11.878;2023-04-05T06:15:24;4.83;;;3.77;;
19396;SDS011;9834;48.076;11.878;2023-04-05T06:17:51;10.20;;;4.63;;
19396;SDS011;9834;48.076;11.878;2023-04-05T06:20:18;6.43;;;4.30;;
19396;SDS011;9834;48.076;11.878;2023-04-05T06:22:47;6.83;;;4.10;;
19396;SDS011;9834;48.076;11.878;2023-04-05T06:25:15;4.70;;;3.93;;
19396;SDS011;9834;48.076;11.878;2023-04-05T06:27:42;4.77;;;4.20;;
19396;SDS011;9834;48.076;11.878;2023-04-05T06:30:10;3.77;;;3.23;;
19396;SDS011;9834;48.076;11.878;2023-04-05T06:32:38;4.97;;;3.90;;
19396;SDS011;9834;48.076;11.878;2023-04-05T06:35:06;7.00;;;4.83;;
19396;SDS011;9834;48.076;11.878;2023-04-05T06:37:34;7.57;;;3.87;;
19396;SDS011;9834;48.076;11.878;2023-04-05T06:40:04;7.20;;;4.23;;
19396;SDS011;9834;48.076;11.878;2023-04-05T06:42:32;7.43;;;3.80;;
19396;SDS011;9834;48.076;11.878;2023-04-05T06:44:59;8.17;;;4.27;;
19396;SDS011;9834;48.076;11.878;2023-04-05T06:47:28;6.97;;;4.10;;
19396;SDS011;9834;48.076;11.878;2023-04-05T06:49:58;5.40;;;3.73;;
19396;SDS011;9834;48.076;11.878;2023-04-05T06:52:26;8.37;;;4.20;;
19396;SDS011;9834;48.076;11.878;2023-04-05T06:54:54;5.97;;;3.63;;
19396;SDS011;9834;48.076;11.878;2023-04-05T06:57:23;4.73;;;4.17;;
19396;SDS011;9834;48.076;11.878;2023-04-05T06:59:51;4.63;;;3.70;;
19396;SDS011;9834;48.076;11.878;2023-04-05T07:02:19;4.97;;;3.40;;
19396;SDS011;9834;48.076;11.878;2023-04-05T07:04:47;6.63;;;4.53;;
19396;SDS011;9834;48.076;11.878;2023-04-05T07:07:15;6.43;;;3.50;;
19396;SDS011;9834;48.076;11.878;2023-04-05T07:09:42;3.93;;;3.13;;
19396;SDS011;9834;48.076;11.878;2023-04-05T07:12:09;5.80;;;3.83;;
19396;SDS011;9834;48.076;11.878;2023-04-05T07:14:38;4.57;;;3.40;;
19396;SDS011;9834;48.076;11.878;2023-04-05T07:17:06;5.33;;;3.40;;
19396;SDS011;9834;48.076;11.878;2023-04-05T07:19:33;5.57;;;3.33;;
19396;SDS011;9834;48.076;11.878;2023-04-05T07:22:01;7.23;;;3.20;;
19396;SDS011;9834;48.076;11.878;2023-04-05T07:24:28;6.40;;;3.97;;
19396;SDS011;9834;48.076;11.878;2023-04-05T07:26:56;4.83;;;2.97;;
19396;SDS011;9834;48.076;11.878;2023-04-05T07:29:23;5.97;;;3.97;;
19396;SDS011;9834;48.076;11.878;2023-04-05T07:31:52;6.47;;;3.10;;
19396;SDS011;9834;48.076;11.878;2023-04-05T07:34:20;7.13;;;3.53;;
19396;SDS011;9834;48.076;11.878;2023-04-05T07:36:47;5.70;;;3.53;;
19396;SDS011;9834;48.076;11.878;2023-04-05T07:39:15;7.90;;;3.70;;
19396;SDS011;9834;48.076;11.878;2023-04-05T07:41:44;3.47;;;3.17;;
19396;SDS011;9834;48.076;11.878;2023-04-05T07:44:11;3.80;;;3.40;;
19396;SDS011;9834;48.076;11.878;2023-04-05T07:46:38;4.90;;;3.63;;
19396;SDS011;9834;48.076;11.878;2023-04-05T07:49:10;5.67;;;3.70;;
19396;SDS011;9834;48.076;11.878;2023-04-05T07:51:38;4.90;;;3.90;;
19396;SDS011;9834;48.076;11.878;2023-04-05T07:54:07;4.07;;;3.00;;
19396;SDS011;9834;48.076;11.878;2023-04-05T07:56:35;5.20;;;2.97;;
19396;SDS011;9834;48.076;11.878;2023-04-05T07:59:03;4.23;;;3.77;;
19396;SDS011;9834;48.076;11.878;2023-04-05T08:01:30;5.37;;;3.23;;
19396;SDS011;9834;48.076;11.878;2023-04-05T08:03:57;3.87;;;3.30;;
19396;SDS011;9834;48.076;11.878;2023-04-05T08:06:26;9.00;;;3.53;;
19396;SDS011;9834;48.076;11.878;2023-04-05T08:08:54;5.27;;;4.20;;
19396;SDS011;9834;48.076;11.878;2023-04-05T08:11:21;6.30;;;3.90;;
19396;SDS011;9834;48.076;11.878;2023-04-05T08:13:50;4.50;;;3.47;;
19396;SDS011;9834;48.076;11.878;2023-04-05T08:16:18;4.70;;;3.30;;
19396;SDS011;9834;48.076;11.878;2023-04-05T08:18:46;4.80;;;3.23;;
19396;SDS011;9834;48.076;11.878;2023-04-05T08:21:13;4.13;;;3.57;;
19396;SDS011;9834;48.076;11.878;2023-04-05T08:23:42;5.50;;;3.47;;
19396;SDS011;9834;48.076;11.878;2023-04-05T08:26:10;5.43;;;3.60;;
19396;SDS011;9834;48.076;11.878;2023-04-05T08:28:37;7.03;;;3.43;;
19396;SDS011;9834;48.076;11.878;2023-04-05T08:31:04;5.87;;;3.30;;
19396;SDS011;9834;48.076;11.878;2023-04-05T08:33:31;7.53;;;3.93;;
19396;SDS011;9834;48.076;11.878;2023-04-05T08:36:02;3.97;;;3.63;;
19396;SDS011;9834;48.076;11.878;2023-04-05T08:38:30;4.23;;;3.60;;
19396;SDS011;9834;48.076;11.878;2023-04-05T08:41:05;3.97;;;3.33;;
19396;SDS011;9834;48.076;11.878;2023-04-05T08:43:36;6.77;;;3.77;;
19396;SDS011;9834;48.076;11.878;2023-04-05T08:46:09;4.27;;;3.87;;
19396;SDS011;9834;48.076;11.878;2023-04-05T08:48:40;4.93;;;3.20;;
19396;SDS011;9834;48.076;11.878;2023-04-05T08:51:08;3.87;;;3.27;;
19396;SDS011;9834;48.076;11.878;2023-04-05T08:53:35;3.80;;;3.40;;
19396;SDS011;9834;48.076;11.878;2023-04-05T08:56:05;4.10;;;3.47;;
19396;SDS011;9834;48.076;11.878;2023-04-05T08:58:33;3.80;;;3.43;;
19396;SDS011;9834;48.076;11.878;2023-04-05T09:01:03;3.47;;;3.17;;
19396;SDS011;9834;48.076;11.878;2023-04-05T09:03:34;4.47;;;3.27;;
19396;SDS011;9834;48.076;11.878;2023-04-05T09:06:04;5.27;;;3.47;;
19396;SDS011;9834;48.076;11.878;2023-04-05T09:08:32;3.10;;;2.80;;
19396;SDS011;9834;48.076;11.878;2023-04-05T09:11:00;4.13;;;3.03;;
19396;SDS011;9834;48.076;11.878;2023-04-05T09:13:29;3.33;;;2.57;;
19396;SDS011;9834;48.076;11.878;2023-04-05T09:15:56;7.13;;;3.47;;
19396;SDS011;9834;48.076;11.878;2023-04-05T09:18:27;3.77;;;3.40;;
19396;SDS011;9834;48.076;11.878;2023-04-05T09:21:00;5.40;;;3.10;;
19396;SDS011;9834;48.076;11.878;2023-04-05T09:23:28;2.67;;;2.47;;
19396;SDS011;9834;48.076;11.878;2023-04-05T09:25:55;3.27;;;2.83;;
19396;SDS011;9834;48.076;11.878;2023-04-05T09:28:23;2.97;;;2.67;;
19396;SDS011;9834;48.076;11.878;2023-04-05T09:31:08;3.20;;;2.60;;
19396;SDS011;9834;48.076;11.878;2023-04-05T09:33:35;4.30;;;2.93;;
19396;SDS011;9834;48.076;11.878;2023-04-05T09:36:03;3.00;;;2.63;;
19396;SDS011;9834;48.076;11.878;2023-04-05T09:38:43;5.10;;;2.93;;
19396;SDS011;9834;48.076;11.878;2023-04-05T09:41:11;2.77;;;2.57;;
19396;SDS011;9834;48.076;11.878;2023-04-05T09:43:40;4.27;;;2.90;;
19396;SDS011;9834;48.076;11.878;2023-04-05T09:46:15;2.40;;;2.07;;
19396;SDS011;9834;48.076;11.878;2023-04-05T09:48:55;2.67;;;2.23;;
19396;SDS011;9834;48.076;11.878;2023-04-05T09:51:23;3.37;;;2.73;;
19396;SDS011;9834;48.076;11.878;2023-04-05T09:54:00;2.57;;;2.37;;
19396;SDS011;9834;48.076;11.878;2023-04-05T09:56:29;3.07;;;2.77;;
19396;SDS011;9834;48.076;11.878;2023-04-05T09:58:59;4.30;;;2.60;;
19396;SDS011;9834;48.076;11.878;2023-04-05T10:01:31;5.10;;;2.83;;
19396;SDS011;9834;48.076;11.878;2023-04-05T10:03:59;3.67;;;2.40;;
19396;SDS011;9834;48.076;11.878;2023-04-05T10:06:34;2.13;;;1.90;;
19396;SDS011;9834;48.076;11.878;2023-04-05T10:09:02;5.07;;;2.63;;
19396;SDS011;9834;48.076;11.878;2023-04-05T10:11:31;3.43;;;3.10;;
19396;SDS011;9834;48.076;11.878;2023-04-05T10:14:01;3.00;;;2.57;;
19396;SDS011;9834;48.076;11.878;2023-04-05T10:16:32;4.17;;;2.17;;
19396;SDS011;9834;48.076;11.878;2023-04-05T10:19:02;3.63;;;2.37;;
19396;SDS011;9834;48.076;11.878;2023-04-05T10:21:39;2.43;;;2.23;;
19396;SDS011;9834;48.076;11.878;2023-04-05T10:24:12;2.60;;;2.40;;
19396;SDS011;9834;48.076;11.878;2023-04-05T10:26:53;5.33;;;2.70;;
19396;SDS011;9834;48.076;11.878;2023-04-05T10:29:33;2.63;;;2.40;;
19396;SDS011;9834;48.076;11.878;2023-04-05T10:32:10;3.30;;;2.27;;
19396;SDS011;9834;48.076;11.878;2023-04-05T10:34:44;3.10;;;2.67;;
19396;SDS011;9834;48.076;11.878;2023-04-05T10:37:20;4.97;;;2.70;;
19396;SDS011;9834;48.076;11.878;2023-04-05T10:39:56;2.30;;;2.10;;
19396;SDS011;9834;48.076;11.878;2023-04-05T10:42:30;3.53;;;2.17;;
19396;SDS011;9834;48.076;11.878;2023-04-05T10:45:05;1.87;;;1.77;;
19396;SDS011;9834;48.076;11.878;2023-04-05T10:47:36;2.80;;;2.40;;
19396;SDS011;9834;48.076;11.878;2023-04-05T10:50:11;3.50;;;1.90;;
19396;SDS011;9834;48.076;11.878;2023-04-05T10:52:45;3.20;;;1.97;;
19396;SDS011;9834;48.076;11.878;2023-04-05T10:55:13;2.43;;;1.90;;
19396;SDS011;9834;48.076;11.878;2023-04-05T10:57:45;3.30;;;2.30;;
19396;SDS011;9834;48.076;11.878;2023-04-05T11:00:16;5.90;;;2.17;;
19396;SDS011;9834;48.076;11.878;2023-04-05T11:02:45;3.30;;;2.00;;
19396;SDS011;9834;48.076;11.878;2023-04-05T11:05:32;2.33;;;2.10;;
19396;SDS011;9834;48.076;11.878;2023-04-05T11:08:05;3.33;;;1.73;;
19396;SDS011;9834;48.076;11.878;2023-04-05T11:10:34;2.17;;;2.07;;
19396;SDS011;9834;48.076;11.878;2023-04-05T11:13:03;2.33;;;1.83;;
19396;SDS011;9834;48.076;11.878;2023-04-05T11:15:36;3.70;;;2.20;;
19396;SDS011;9834;48.076;11.878;2023-04-05T11:18:04;2.27;;;2.07;;
19396;SDS011;9834;48.076;11.878;2023-04-05T11:20:39;2.13;;;2.03;;
19396;SDS011;9834;48.076;11.878;2023-04-05T11:23:12;5.53;;;3.00;;
19396;SDS011;9834;48.076;11.878;2023-04-05T11:25:44;6.10;;;3.13;;
19396;SDS011;9834;48.076;11.878;2023-04-05T11:28:27;1.93;;;1.83;;
19396;SDS011;9834;48.076;11.878;2023-04-05T11:30:57;4.00;;;2.13;;
19396;SDS011;9834;48.076;11.878;2023-04-05T11:33:53;2.70;;;2.50;;
19396;SDS011;9834;48.076;11.878;2023-04-05T11:36:30;6.67;;;1.90;;
19396;SDS011;9834;48.076;11.878;2023-04-05T11:42:04;3.13;;;1.77;;
19396;SDS011;9834;48.076;11.878;2023-04-05T11:44:39;2.13;;;1.97;;
19396;SDS011;9834;48.076;11.878;2023-04-05T11:47:09;2.43;;;2.23;;
19396;SDS011;9834;48.076;11.878;2023-04-05T11:49:37;3.13;;;1.93;;
19396;SDS011;9834;48.076;11.878;2023-04-05T11:52:10;3.43;;;2.20;;
19396;SDS011;9834;48.076;11.878;2023-04-05T11:54:39;2.47;;;2.27;;
19396;SDS011;9834;48.076;11.878;2023-04-05T11:57:13;2.60;;;2.00;;
19396;SDS011;9834;48.076;11.878;2023-04-05T11:59:41;2.97;;;2.47;;
19396;SDS011;9834;48.076;11.878;2023-04-05T12:02:11;2.67;;;2.20;;
19396;SDS011;9834;48.076;11.878;2023-04-05T12:04:38;4.40;;;2.37;;
19396;SDS011;9834;48.076;11.878;2023-04-05T12:07:09;1.80;;;1.70;;
19396;SDS011;9834;48.076;11.878;2023-04-05T12:09:57;3.57;;;2.40;;
19396;SDS011;9834;48.076;11.878;2023-04-05T12:12:27;3.70;;;2.17;;
19396;SDS011;9834;48.076;11.878;2023-04-05T12:14:58;1.80;;;1.63;;
19396;SDS011;9834;48.076;11.878;2023-04-05T12:17:40;1.97;;;1.80;;
19396;SDS011;9834;48.076;11.878;2023-04-05T12:20:09;2.10;;;1.90;;
19396;SDS011;9834;48.076;11.878;2023-04-05T12:22:38;1.75;;;1.65;;
19396;SDS011;9834;48.076;11.878;2023-04-05T12:25:07;2.40;;;1.90;;
19396;SDS011;9834;48.076;11.878;2023-04-05T12:27:35;1.95;;;1.80;;
19396;SDS011;9834;48.076;11.878;2023-04-05T12:30:09;1.98;;;1.85;;
19396;SDS011;9834;48.076;11.878;2023-04-05T12:32:41;4.00;;;1.90;;
19396;SDS011;9834;48.076;11.878;2023-04-05T12:35:11;2.80;;;2.42;;
19396;SDS011;9834;48.076;11.878;2023-04-05T12:37:41;1.80;;;1.70;;
19396;SDS011;9834;48.076;11.878;2023-04-05T12:40:09;4.27;;;2.83;;
19396;SDS011;9834;48.076;11.878;2023-04-05T12:42:37;1.90;;;1.80;;
19396;SDS011;9834;48.076;11.878;2023-04-05T12:45:07;2.97;;;2.27;;
19396;SDS011;9834;48.076;11.878;2023-04-05T12:47:47;3.97;;;1.90;;
19396;SDS011;9834;48.076;11.878;2023-04-05T12:50:17;2.07;;;1.63;;
19396;SDS011;9834;48.076;11.878;2023-04-05T12:52:54;1.80;;;1.70;;
19396;SDS011;9834;48.076;11.878;2023-04-05T12:55:22;2.57;;;1.83;;
19396;SDS011;9834;48.076;11.878;2023-04-05T12:57:51;2.23;;;2.03;;
19396;SDS011;9834;48.076;11.878;2023-04-05T13:00:20;3.10;;;2.43;;
19396;SDS011;9834;48.076;11.878;2023-04-05T13:02:52;2.83;;;2.57;;
19396;SDS011;9834;48.076;11.878;2023-04-05T13:05:21;4.63;;;2.00;;
19396;SDS011;9834;48.076;11.878;2023-04-05T13:07:49;3.13;;;2.20;;
19396;SDS011;9834;48.076;11.878;2023-04-05T13:10:17;2.95;;;2.00;;
19396;SDS011;9834;48.076;11.878;2023-04-05T13:12:45;2.00;;;1.80;;
19396;SDS011;9834;48.076;11.878;2023-04-05T13:15:12;1.88;;;1.77;;
19396;SDS011;9834;48.076;11.878;2023-04-05T13:17:40;2.10;;;1.90;;
19396;SDS011;9834;48.076;11.878;2023-04-05T13:20:11;1.70;;;1.60;;
19396;SDS011;9834;48.076;11.878;2023-04-05T13:22:38;3.57;;;2.00;;
19396;SDS011;9834;48.076;11.878;2023-04-05T13:25:06;2.23;;;2.00;;
19396;SDS011;9834;48.076;11.878;2023-04-05T13:27:34;2.00;;;1.63;;
19396;SDS011;9834;48.076;11.878;2023-04-05T13:30:02;2.40;;;2.23;;
19396;SDS011;9834;48.076;11.878;2023-04-05T13:32:29;3.07;;;2.27;;
19396;SDS011;9834;48.076;11.878;2023-04-05T13:34:58;2.13;;;2.03;;
19396;SDS011;9834;48.076;11.878;2023-04-05T13:37:27;2.63;;;2.00;;
19396;SDS011;9834;48.076;11.878;2023-04-05T13:39:54;1.60;;;1.37;;
19396;SDS011;9834;48.076;11.878;2023-04-05T13:42:21;2.95;;;2.08;;
19396;SDS011;9834;48.076;11.878;2023-04-05T13:44:49;2.10;;;1.90;;
19396;SDS011;9834;48.076;11.878;2023-04-05T13:47:17;4.43;;;2.15;;
19396;SDS011;9834;48.076;11.878;2023-04-05T13:49:45;1.73;;;1.63;;
19396;SDS011;9834;48.076;11.878;2023-04-05T13:52:12;2.55;;;2.03;;
19396;SDS011;9834;48.076;11.878;2023-04-05T13:54:41;2.25;;;2.08;;
19396;SDS011;9834;48.076;11.878;2023-04-05T13:57:09;4.55;;;1.95;;
19396;SDS011;9834;48.076;11.878;2023-04-05T13:59:38;2.63;;;2.17;;
19396;SDS011;9834;48.076;11.878;2023-04-05T14:02:06;4.80;;;2.35;;
19396;SDS011;9834;48.076;11.878;2023-04-05T14:04:36;7.95;;;2.05;;
19396;SDS011;9834;48.076;11.878;2023-04-05T14:07:04;1.95;;;1.77;;
19396;SDS011;9834;48.076;11.878;2023-04-05T14:09:32;2.00;;;1.90;;
19396;SDS011;9834;48.076;11.878;2023-04-05T14:12:01;1.73;;;1.63;;
19396;SDS011;9834;48.076;11.878;2023-04-05T14:14:29;1.60;;;1.47;;
19396;SDS011;9834;48.076;11.878;2023-04-05T14:16:56;6.03;;;2.67;;
19396;SDS011;9834;48.076;11.878;2023-04-05T14:19:24;2.00;;;1.90;;
19396;SDS011;9834;48.076;11.878;2023-04-05T14:21:51;1.57;;;1.47;;
19396;SDS011;9834;48.076;11.878;2023-04-05T14:24:19;2.10;;;1.97;;
19396;SDS011;9834;48.076;11.878;2023-04-05T14:26:46;2.17;;;1.90;;
19396;SDS011;9834;48.076;11.878;2023-04-05T14:29:16;2.10;;;1.77;;
19396;SDS011;9834;48.076;11.878;2023-04-05T14:31:44;2.20;;;2.00;;
19396;SDS011;9834;48.076;11.878;2023-04-05T14:34:11;2.70;;;1.77;;
19396;SDS011;9834;48.076;11.878;2023-04-05T14:36:38;2.10;;;1.77;;
19396;SDS011;9834;48.076;11.878;2023-04-05T14:39:06;3.33;;;2.30;;
19396;SDS011;9834;48.076;11.878;2023-04-05T14:41:34;2.07;;;1.87;;
19396;SDS011;9834;48.076;11.878;2023-04-05T14:44:01;5.67;;;3.80;;
19396;SDS011;9834;48.076;11.878;2023-04-05T14:46:30;1.90;;;1.80;;
19396;SDS011;9834;48.076;11.878;2023-04-05T14:48:58;7.55;;;2.15;;
19396;SDS011;9834;48.076;11.878;2023-04-05T14:51:26;1.65;;;1.55;;
19396;SDS011;9834;48.076;11.878;2023-04-05T14:53:53;2.28;;;2.08;;
19396;SDS011;9834;48.076;11.878;2023-04-05T14:56:22;2.15;;;1.95;;
19396;SDS011;9834;48.076;11.878;2023-04-05T14:58:51;3.28;;;2.10;;
19396;SDS011;9834;48.076;11.878;2023-04-05T15:01:18;2.08;;;1.92;;
19396;SDS011;9834;48.076;11.878;2023-04-05T15:03:48;1.73;;;1.63;;
19396;SDS011;9834;48.076;11.878;2023-04-05T15:06:16;2.28;;;2.08;;
19396;SDS011;9834;48.076;11.878;2023-04-05T15:08:43;2.75;;;1.92;;